sensor_id;sensor_type;location;lat;lon;timestamp;temperature;humidity
26947;DHT22;14501;52.282;10.560;2023-03-01T00:00:52;-4.00;99.90
26947;DHT22;14501;52.282;10.560;2023-03-01T00:03:17;-4.00;99.90
26947;DHT22;14501;52.282;10.560;2023-03-01T00:05:43;-4.00;99.90
26947;DHT22;14501;52.282;10.560;2023-03-01T00:08:09;-4.00;99.90
26947;DHT22;14501;52.282;10.560;2023-03-01T00:10:34;-3.60;99.90
26947;DHT22;14501;52.282;10.560;2023-03-01T00:13:00;-4.00;99.90
26947;DHT22;14501;52.282;10.560;2023-03-01T00:15:25;-3.90;99.90
26947;DHT22;14501;52.282;10.560;2023-03-01T00:17:51;-4.00;99.90
26947;DHT22;14501;52.282;10.560;2023-03-01T00:20:16;-4.00;99.90
26947;DHT22;14501;52.282;10.560;2023-03-01T00:22:42;-4.00;99.90
26947;DHT22;14501;52.282;10.560;2023-03-01T00:25:07;-4.20;99.90
26947;DHT22;14501;52.282;10.560;2023-03-01T00:27:33;-4.10;99.90
26947;DHT22;14501;52.282;10.560;2023-03-01T00:29:58;-4.20;99.90
26947;DHT22;14501;52.282;10.560;2023-03-01T00:32:24;-4.10;99.90
26947;DHT22;14501;52.282;10.560;2023-03-01T00:34:49;-4.20;99.90
26947;DHT22;14501;52.282;10.560;2023-03-01T00:37:21;-4.30;99.90
26947;DHT22;14501;52.282;10.560;2023-03-01T00:39:46;-4.30;99.90
26947;DHT22;14501;52.282;10.560;2023-03-01T00:42:12;-4.20;99.90
26947;DHT22;14501;52.282;10.560;2023-03-01T00:44:37;-4.20;99.90
26947;DHT22;14501;52.282;10.560;2023-03-01T00:47:03;-4.30;99.90
26947;DHT22;14501;52.282;10.560;2023-03-01T00:49:28;-4.20;99.90
26947;DHT22;14501;52.282;10.560;2023-03-01T00:51:54;-4.20;99.90
26947;DHT22;14501;52.282;10.560;2023-03-01T00:54:19;-4.30;99.90
26947;DHT22;14501;52.282;10.560;2023-03-01T00:56:45;-4.20;99.90
26947;DHT22;14501;52.282;10.560;2023-03-01T00:59:10;-4.40;99.90
26947;DHT22;14501;52.282;10.560;2023-03-01T01:01:36;-4.40;99.90
26947;DHT22;14501;52.282;10.560;2023-03-01T01:04:09;-3.60;99.90
26947;DHT22;14501;52.282;10.560;2023-03-01T01:06:36;-4.40;99.90
26947;DHT22;14501;52.282;10.560;2023-03-01T01:09:05;-4.50;99.90
26947;DHT22;14501;52.282;10.560;2023-03-01T01:11:30;-4.40;99.90
26947;DHT22;14501;52.282;10.560;2023-03-01T01:13:56;-4.40;99.90
26947;DHT22;14501;52.282;10.560;2023-03-01T01:16:22;-4.50;99.90
26947;DHT22;14501;52.282;10.560;2023-03-01T01:18:48;-4.60;99.90
26947;DHT22;14501;52.282;10.560;2023-03-01T01:21:15;-4.50;99.90
26947;DHT22;14501;52.282;10.560;2023-03-01T01:23:42;-4.50;99.90
26947;DHT22;14501;52.282;10.560;2023-03-01T01:26:08;-4.60;99.90
26947;DHT22;14501;52.282;10.560;2023-03-01T01:28:36;-4.60;99.90
26947;DHT22;14501;52.282;10.560;2023-03-01T01:31:01;-4.60;99.90
26947;DHT22;14501;52.282;10.560;2023-03-01T01:33:28;-4.60;99.90
26947;DHT22;14501;52.282;10.560;2023-03-01T01:35:54;-4.60;99.90
26947;DHT22;14501;52.282;10.560;2023-03-01T01:38:20;-4.60;99.90
26947;DHT22;14501;52.282;10.560;2023-03-01T01:40:46;-4.80;99.90
26947;DHT22;14501;52.282;10.560;2023-03-01T01:45:47;-4.70;99.90
26947;DHT22;14501;52.282;10.560;2023-03-01T01:48:14;-5.00;99.90
26947;DHT22;14501;52.282;10.560;2023-03-01T01:50:41;-4.70;99.90
26947;DHT22;14501;52.282;10.560;2023-03-01T01:53:17;-4.70;99.90
26947;DHT22;14501;52.282;10.560;2023-03-01T01:55:45;-4.70;99.90
26947;DHT22;14501;52.282;10.560;2023-03-01T01:58:13;-4.70;99.90
26947;DHT22;14501;52.282;10.560;2023-03-01T02:00:39;-4.70;99.90
26947;DHT22;14501;52.282;10.560;2023-03-01T02:03:06;-4.50;99.90
26947;DHT22;14501;52.282;10.560;2023-03-01T02:05:53;-4.90;99.90
26947;DHT22;14501;52.282;10.560;2023-03-01T02:08:20;-4.80;99.90
26947;DHT22;14501;52.282;10.560;2023-03-01T02:10:47;-4.80;99.90
26947;DHT22;14501;52.282;10.560;2023-03-01T02:13:13;-4.80;99.90
26947;DHT22;14501;52.282;10.560;2023-03-01T02:15:39;-4.90;99.90
26947;DHT22;14501;52.282;10.560;2023-03-01T02:18:06;-4.90;99.90
26947;DHT22;14501;52.282;10.560;2023-03-01T02:20:38;-3.10;99.90
26947;DHT22;14501;52.282;10.560;2023-03-01T02:23:07;-4.90;99.90
26947;DHT22;14501;52.282;10.560;2023-03-01T02:30:43;-5.00;99.90
26947;DHT22;14501;52.282;10.560;2023-03-01T02:33:28;-5.00;99.90
26947;DHT22;14501;52.282;10.560;2023-03-01T02:35:54;-5.00;99.90
26947;DHT22;14501;52.282;10.560;2023-03-01T02:38:20;-5.10;99.90
26947;DHT22;14501;52.282;10.560;2023-03-01T02:40:46;-5.10;99.90
26947;DHT22;14501;52.282;10.560;2023-03-01T02:43:12;-5.10;99.90
26947;DHT22;14501;52.282;10.560;2023-03-01T02:45:42;-5.20;99.90
26947;DHT22;14501;52.282;10.560;2023-03-01T02:48:08;-5.20;99.90
26947;DHT22;14501;52.282;10.560;2023-03-01T02:55:49;-5.20;99.90
26947;DHT22;14501;52.282;10.560;2023-03-01T02:58:15;-5.20;99.90
26947;DHT22;14501;52.282;10.560;2023-03-01T03:00:42;-5.20;99.90
26947;DHT22;14501;52.282;10.560;2023-03-01T03:03:12;-5.40;99.90
26947;DHT22;14501;52.282;10.560;2023-03-01T03:05:38;-5.40;99.90
26947;DHT22;14501;52.282;10.560;2023-03-01T03:08:04;-5.30;99.90
26947;DHT22;14501;52.282;10.560;2023-03-01T03:10:31;-5.30;99.90
26947;DHT22;14501;52.282;10.560;2023-03-01T03:12:58;-5.30;99.90
26947;DHT22;14501;52.282;10.560;2023-03-01T03:15:24;-5.40;99.90
26947;DHT22;14501;52.282;10.560;2023-03-01T03:17:50;-5.40;99.90
26947;DHT22;14501;52.282;10.560;2023-03-01T03:20:17;-5.40;99.90
26947;DHT22;14501;52.282;10.560;2023-03-01T03:22:48;-5.40;99.90
26947;DHT22;14501;52.282;10.560;2023-03-01T03:25:14;-5.40;99.90
26947;DHT22;14501;52.282;10.560;2023-03-01T03:27:40;-5.40;99.90
26947;DHT22;14501;52.282;10.560;2023-03-01T03:30:06;-5.40;99.90
26947;DHT22;14501;52.282;10.560;2023-03-01T03:32:37;-5.30;99.90
26947;DHT22;14501;52.282;10.560;2023-03-01T03:35:03;-5.40;99.90
26947;DHT22;14501;52.282;10.560;2023-03-01T03:37:41;-5.30;99.90
26947;DHT22;14501;52.282;10.560;2023-03-01T03:40:26;-5.30;99.90
26947;DHT22;14501;52.282;10.560;2023-03-01T03:42:52;-5.30;99.90
26947;DHT22;14501;52.282;10.560;2023-03-01T03:45:17;-5.30;99.90
26947;DHT22;14501;52.282;10.560;2023-03-01T03:47:43;-5.40;99.90
26947;DHT22;14501;52.282;10.560;2023-03-01T03:50:09;-5.30;99.90
26947;DHT22;14501;52.282;10.560;2023-03-01T03:52:35;-5.30;99.90
26947;DHT22;14501;52.282;10.560;2023-03-01T03:55:00;-5.40;99.90
26947;DHT22;14501;52.282;10.560;2023-03-01T03:57:26;-5.40;99.90
26947;DHT22;14501;52.282;10.560;2023-03-01T03:59:51;-5.50;99.90
26947;DHT22;14501;52.282;10.560;2023-03-01T04:02:17;-5.40;99.90
26947;DHT22;14501;52.282;10.560;2023-03-01T04:04:47;-5.40;99.90
26947;DHT22;14501;52.282;10.560;2023-03-01T04:07:15;-5.40;99.90
26947;DHT22;14501;52.282;10.560;2023-03-01T04:09:41;-5.50;99.90
26947;DHT22;14501;52.282;10.560;2023-03-01T04:12:08;-5.40;99.90
26947;DHT22;14501;52.282;10.560;2023-03-01T04:14:33;-5.40;99.90
26947;DHT22;14501;52.282;10.560;2023-03-01T04:16:58;-5.50;99.90
26947;DHT22;14501;52.282;10.560;2023-03-01T04:19:24;-5.50;99.90
26947;DHT22;14501;52.282;10.560;2023-03-01T04:21:49;-5.50;99.90
26947;DHT22;14501;52.282;10.560;2023-03-01T04:24:15;-5.50;99.90
26947;DHT22;14501;52.282;10.560;2023-03-01T04:26:40;-5.50;99.90
26947;DHT22;14501;52.282;10.560;2023-03-01T04:29:06;-2.20;99.90
26947;DHT22;14501;52.282;10.560;2023-03-01T04:31:32;-5.70;99.90
26947;DHT22;14501;52.282;10.560;2023-03-01T04:33:59;-5.60;99.90
26947;DHT22;14501;52.282;10.560;2023-03-01T04:36:26;-5.70;99.90
26947;DHT22;14501;52.282;10.560;2023-03-01T04:38:52;-5.60;99.90
26947;DHT22;14501;52.282;10.560;2023-03-01T04:41:18;-5.70;99.90
26947;DHT22;14501;52.282;10.560;2023-03-01T04:43:44;-5.70;99.90
26947;DHT22;14501;52.282;10.560;2023-03-01T04:46:11;-5.80;99.90
26947;DHT22;14501;52.282;10.560;2023-03-01T04:48:37;-5.70;99.90
26947;DHT22;14501;52.282;10.560;2023-03-01T04:51:03;-5.80;99.90
26947;DHT22;14501;52.282;10.560;2023-03-01T04:53:29;-5.70;99.90
26947;DHT22;14501;52.282;10.560;2023-03-01T04:55:55;-4.60;99.90
26947;DHT22;14501;52.282;10.560;2023-03-01T04:58:22;-5.80;99.90
26947;DHT22;14501;52.282;10.560;2023-03-01T05:00:48;-5.80;99.90
26947;DHT22;14501;52.282;10.560;2023-03-01T05:03:13;-5.80;99.90
26947;DHT22;14501;52.282;10.560;2023-03-01T05:05:44;-4.90;99.90
26947;DHT22;14501;52.282;10.560;2023-03-01T05:08:10;-5.80;99.90
26947;DHT22;14501;52.282;10.560;2023-03-01T05:10:43;-5.90;99.90
26947;DHT22;14501;52.282;10.560;2023-03-01T05:13:09;-6.00;99.90
26947;DHT22;14501;52.282;10.560;2023-03-01T05:15:34;-5.90;99.90
26947;DHT22;14501;52.282;10.560;2023-03-01T05:18:01;-6.00;99.90
26947;DHT22;14501;52.282;10.560;2023-03-01T05:20:27;-5.90;99.90
26947;DHT22;14501;52.282;10.560;2023-03-01T05:22:55;-6.00;99.90
26947;DHT22;14501;52.282;10.560;2023-03-01T05:25:21;-5.90;99.90
26947;DHT22;14501;52.282;10.560;2023-03-01T05:27:47;-5.90;99.90
26947;DHT22;14501;52.282;10.560;2023-03-01T05:30:12;-5.90;99.90
26947;DHT22;14501;52.282;10.560;2023-03-01T05:32:48;-6.00;99.90
26947;DHT22;14501;52.282;10.560;2023-03-01T05:35:15;-6.00;99.90
26947;DHT22;14501;52.282;10.560;2023-03-01T05:37:45;-6.00;99.90
26947;DHT22;14501;52.282;10.560;2023-03-01T05:40:12;-6.00;99.90
26947;DHT22;14501;52.282;10.560;2023-03-01T05:42:41;-6.00;99.90
26947;DHT22;14501;52.282;10.560;2023-03-01T05:45:07;-6.10;99.90
26947;DHT22;14501;52.282;10.560;2023-03-01T05:47:34;-6.10;99.90
26947;DHT22;14501;52.282;10.560;2023-03-01T05:50:01;-6.10;99.90
26947;DHT22;14501;52.282;10.560;2023-03-01T05:52:26;-6.10;99.90
26947;DHT22;14501;52.282;10.560;2023-03-01T05:54:52;-6.10;99.90
26947;DHT22;14501;52.282;10.560;2023-03-01T05:57:17;-6.10;99.90
26947;DHT22;14501;52.282;10.560;2023-03-01T05:59:43;-6.10;99.90
26947;DHT22;14501;52.282;10.560;2023-03-01T06:02:11;-6.10;99.90
26947;DHT22;14501;52.282;10.560;2023-03-01T06:04:37;-6.10;99.90
26947;DHT22;14501;52.282;10.560;2023-03-01T06:07:03;-6.10;99.90
26947;DHT22;14501;52.282;10.560;2023-03-01T06:09:28;-6.10;99.90
26947;DHT22;14501;52.282;10.560;2023-03-01T06:11:54;-3.50;99.90
26947;DHT22;14501;52.282;10.560;2023-03-01T06:14:19;-6.10;99.90
26947;DHT22;14501;52.282;10.560;2023-03-01T06:16:46;-6.00;99.90
26947;DHT22;14501;52.282;10.560;2023-03-01T06:19:11;-6.10;99.90
26947;DHT22;14501;52.282;10.560;2023-03-01T06:21:37;-6.00;99.90
26947;DHT22;14501;52.282;10.560;2023-03-01T06:24:02;-6.00;99.90
26947;DHT22;14501;52.282;10.560;2023-03-01T06:26:28;-5.90;99.90
26947;DHT22;14501;52.282;10.560;2023-03-01T06:28:53;-5.90;99.90
26947;DHT22;14501;52.282;10.560;2023-03-01T06:31:18;-5.80;99.90
26947;DHT22;14501;52.282;10.560;2023-03-01T06:33:44;-5.70;99.90
26947;DHT22;14501;52.282;10.560;2023-03-01T06:36:09;-5.60;99.90
26947;DHT22;14501;52.282;10.560;2023-03-01T06:38:35;-5.60;99.90
26947;DHT22;14501;52.282;10.560;2023-03-01T06:41:02;-5.40;99.90
26947;DHT22;14501;52.282;10.560;2023-03-01T06:43:27;-5.30;99.90
26947;DHT22;14501;52.282;10.560;2023-03-01T06:45:53;-2.40;99.90
26947;DHT22;14501;52.282;10.560;2023-03-01T06:48:18;-5.30;99.90
26947;DHT22;14501;52.282;10.560;2023-03-01T06:50:44;-4.50;99.90
26947;DHT22;14501;52.282;10.560;2023-03-01T06:53:09;-4.70;99.90
26947;DHT22;14501;52.282;10.560;2023-03-01T06:55:35;-4.60;99.90
26947;DHT22;14501;52.282;10.560;2023-03-01T06:58:01;-4.60;99.90
26947;DHT22;14501;52.282;10.560;2023-03-01T07:00:27;-3.40;99.90
26947;DHT22;14501;52.282;10.560;2023-03-01T07:02:53;-4.20;99.90
26947;DHT22;14501;52.282;10.560;2023-03-01T07:05:19;-4.10;99.90
26947;DHT22;14501;52.282;10.560;2023-03-01T07:07:45;-3.20;99.90
26947;DHT22;14501;52.282;10.560;2023-03-01T07:10:10;-4.00;99.90
26947;DHT22;14501;52.282;10.560;2023-03-01T07:12:37;-4.10;99.90
26947;DHT22;14501;52.282;10.560;2023-03-01T07:15:03;-3.70;99.90
26947;DHT22;14501;52.282;10.560;2023-03-01T07:17:29;-3.60;99.90
26947;DHT22;14501;52.282;10.560;2023-03-01T07:19:54;-3.60;99.90
26947;DHT22;14501;52.282;10.560;2023-03-01T07:22:20;-3.50;99.90
26947;DHT22;14501;52.282;10.560;2023-03-01T07:24:45;-2.80;99.90
26947;DHT22;14501;52.282;10.560;2023-03-01T07:27:11;-3.30;99.90
26947;DHT22;14501;52.282;10.560;2023-03-01T07:29:36;-3.20;99.90
26947;DHT22;14501;52.282;10.560;2023-03-01T07:32:02;-3.00;99.90
26947;DHT22;14501;52.282;10.560;2023-03-01T07:34:28;-2.90;99.90
26947;DHT22;14501;52.282;10.560;2023-03-01T07:36:53;-2.80;99.90
26947;DHT22;14501;52.282;10.560;2023-03-01T07:39:19;-2.80;99.90
26947;DHT22;14501;52.282;10.560;2023-03-01T07:41:44;-2.70;99.90
26947;DHT22;14501;52.282;10.560;2023-03-01T07:44:10;-2.50;99.90
26947;DHT22;14501;52.282;10.560;2023-03-01T07:46:36;-2.10;99.90
26947;DHT22;14501;52.282;10.560;2023-03-01T07:49:01;-2.20;99.90
26947;DHT22;14501;52.282;10.560;2023-03-01T07:51:27;-1.00;99.90
26947;DHT22;14501;52.282;10.560;2023-03-01T07:53:52;-2.10;99.90
26947;DHT22;14501;52.282;10.560;2023-03-01T07:56:18;-1.90;99.90
26947;DHT22;14501;52.282;10.560;2023-03-01T07:58:44;-1.80;99.90
26947;DHT22;14501;52.282;10.560;2023-03-01T08:01:11;-1.70;99.90
26947;DHT22;14501;52.282;10.560;2023-03-01T08:03:38;-1.60;99.90
26947;DHT22;14501;52.282;10.560;2023-03-01T08:06:13;-1.50;99.90
26947;DHT22;14501;52.282;10.560;2023-03-01T08:08:40;-1.50;99.90
26947;DHT22;14501;52.282;10.560;2023-03-01T08:11:05;-1.40;99.90
26947;DHT22;14501;52.282;10.560;2023-03-01T08:13:31;-1.30;99.90
26947;DHT22;14501;52.282;10.560;2023-03-01T08:16:01;-1.10;99.90
26947;DHT22;14501;52.282;10.560;2023-03-01T08:18:27;-0.90;99.90
26947;DHT22;14501;52.282;10.560;2023-03-01T08:20:52;-0.80;99.90
26947;DHT22;14501;52.282;10.560;2023-03-01T08:23:18;-0.50;99.90
26947;DHT22;14501;52.282;10.560;2023-03-01T08:25:44;-0.40;99.90
26947;DHT22;14501;52.282;10.560;2023-03-01T08:28:11;-0.30;99.90
26947;DHT22;14501;52.282;10.560;2023-03-01T08:30:36;0.20;99.90
26947;DHT22;14501;52.282;10.560;2023-03-01T08:33:02;0.00;99.90
26947;DHT22;14501;52.282;10.560;2023-03-01T08:35:27;0.20;99.90
26947;DHT22;14501;52.282;10.560;2023-03-01T08:37:53;0.40;99.90
26947;DHT22;14501;52.282;10.560;2023-03-01T08:40:18;0.50;99.90
26947;DHT22;14501;52.282;10.560;2023-03-01T08:42:44;0.80;99.90
26947;DHT22;14501;52.282;10.560;2023-03-01T08:45:10;1.30;99.90
26947;DHT22;14501;52.282;10.560;2023-03-01T08:47:36;1.30;99.90
26947;DHT22;14501;52.282;10.560;2023-03-01T08:50:01;1.90;99.90
26947;DHT22;14501;52.282;10.560;2023-03-01T08:52:27;2.90;99.90
26947;DHT22;14501;52.282;10.560;2023-03-01T08:54:53;4.90;99.90
26947;DHT22;14501;52.282;10.560;2023-03-01T08:57:18;8.10;99.90
26947;DHT22;14501;52.282;10.560;2023-03-01T08:59:44;11.10;99.90
26947;DHT22;14501;52.282;10.560;2023-03-01T09:02:11;13.40;99.90
26947;DHT22;14501;52.282;10.560;2023-03-01T09:04:37;15.40;94.80
26947;DHT22;14501;52.282;10.560;2023-03-01T09:07:02;16.80;92.00
26947;DHT22;14501;52.282;10.560;2023-03-01T09:09:28;18.20;86.00
26947;DHT22;14501;52.282;10.560;2023-03-01T09:11:53;18.60;82.20
26947;DHT22;14501;52.282;10.560;2023-03-01T09:14:19;19.60;76.40
26947;DHT22;14501;52.282;10.560;2023-03-01T09:16:51;19.90;75.60
26947;DHT22;14501;52.282;10.560;2023-03-01T09:19:16;20.00;71.80
26947;DHT22;14501;52.282;10.560;2023-03-01T09:21:42;19.80;70.30
26947;DHT22;14501;52.282;10.560;2023-03-01T09:24:17;20.50;69.80
26947;DHT22;14501;52.282;10.560;2023-03-01T09:26:43;20.50;70.20
26947;DHT22;14501;52.282;10.560;2023-03-01T09:29:11;21.50;70.50
26947;DHT22;14501;52.282;10.560;2023-03-01T09:31:37;22.20;66.20
26947;DHT22;14501;52.282;10.560;2023-03-01T09:34:03;22.00;64.10
26947;DHT22;14501;52.282;10.560;2023-03-01T09:36:29;22.20;63.20
26947;DHT22;14501;52.282;10.560;2023-03-01T09:38:54;22.50;60.60
26947;DHT22;14501;52.282;10.560;2023-03-01T09:46:20;22.20;63.50
26947;DHT22;14501;52.282;10.560;2023-03-01T09:48:48;22.60;63.90
26947;DHT22;14501;52.282;10.560;2023-03-01T09:51:26;22.80;60.90
26947;DHT22;14501;52.282;10.560;2023-03-01T09:53:52;22.10;59.90
26947;DHT22;14501;52.282;10.560;2023-03-01T09:56:41;22.20;59.80
26947;DHT22;14501;52.282;10.560;2023-03-01T10:02:18;22.30;59.50
26947;DHT22;14501;52.282;10.560;2023-03-01T10:04:47;22.20;56.70
26947;DHT22;14501;52.282;10.560;2023-03-01T10:07:17;22.30;58.10
26947;DHT22;14501;52.282;10.560;2023-03-01T10:09:44;21.60;58.00
26947;DHT22;14501;52.282;10.560;2023-03-01T10:12:14;21.10;57.80
26947;DHT22;14501;52.282;10.560;2023-03-01T10:14:44;20.10;58.80
26947;DHT22;14501;52.282;10.560;2023-03-01T10:19:45;19.60;62.20
26947;DHT22;14501;52.282;10.560;2023-03-01T10:22:21;19.00;62.40
26947;DHT22;14501;52.282;10.560;2023-03-01T10:24:47;17.90;62.90
26947;DHT22;14501;52.282;10.560;2023-03-01T10:27:59;16.80;66.00
26947;DHT22;14501;52.282;10.560;2023-03-01T10:30:09;15.50;68.30
26947;DHT22;14501;52.282;10.560;2023-03-01T10:32:38;13.60;71.60
26947;DHT22;14501;52.282;10.560;2023-03-01T10:35:17;13.50;73.30
26947;DHT22;14501;52.282;10.560;2023-03-01T10:38:16;12.90;73.70
26947;DHT22;14501;52.282;10.560;2023-03-01T10:40:49;12.30;76.60
26947;DHT22;14501;52.282;10.560;2023-03-01T10:43:14;11.70;78.90
26947;DHT22;14501;52.282;10.560;2023-03-01T10:45:40;11.60;79.70
26947;DHT22;14501;52.282;10.560;2023-03-01T10:50:45;11.80;79.20
26947;DHT22;14501;52.282;10.560;2023-03-01T10:58:29;11.60;80.80
26947;DHT22;14501;52.282;10.560;2023-03-01T11:00:57;11.40;78.70
26947;DHT22;14501;52.282;10.560;2023-03-01T11:05:50;11.10;84.50
26947;DHT22;14501;52.282;10.560;2023-03-01T11:08:25;11.40;84.20
26947;DHT22;14501;52.282;10.560;2023-03-01T11:11:00;11.30;79.30
26947;DHT22;14501;52.282;10.560;2023-03-01T11:13:28;11.80;82.70
26947;DHT22;14501;52.282;10.560;2023-03-01T11:15:59;11.10;83.30
26947;DHT22;14501;52.282;10.560;2023-03-01T11:18:26;10.90;82.00
26947;DHT22;14501;52.282;10.560;2023-03-01T11:20:52;10.70;81.90
26947;DHT22;14501;52.282;10.560;2023-03-01T11:23:18;10.60;83.50
26947;DHT22;14501;52.282;10.560;2023-03-01T11:25:58;10.70;84.20
26947;DHT22;14501;52.282;10.560;2023-03-01T11:28:33;10.60;81.00
26947;DHT22;14501;52.282;10.560;2023-03-01T11:31:04;10.50;82.10
26947;DHT22;14501;52.282;10.560;2023-03-01T11:33:34;10.40;84.70
26947;DHT22;14501;52.282;10.560;2023-03-01T11:38:34;10.30;84.60
26947;DHT22;14501;52.282;10.560;2023-03-01T11:48:48;10.20;87.60
26947;DHT22;14501;52.282;10.560;2023-03-01T11:54:04;10.30;88.40
26947;DHT22;14501;52.282;10.560;2023-03-01T11:56:50;10.20;88.90
26947;DHT22;14501;52.282;10.560;2023-03-01T12:04:43;10.20;86.10
26947;DHT22;14501;52.282;10.560;2023-03-01T12:07:26;10.20;84.40
26947;DHT22;14501;52.282;10.560;2023-03-01T12:15:22;9.90;89.80
26947;DHT22;14501;52.282;10.560;2023-03-01T12:18:06;10.00;91.10
26947;DHT22;14501;52.282;10.560;2023-03-01T12:25:58;10.50;87.60
26947;DHT22;14501;52.282;10.560;2023-03-01T12:41:48;10.30;85.00
26947;DHT22;14501;52.282;10.560;2023-03-01T12:51:36;9.90;85.20
26947;DHT22;14501;52.282;10.560;2023-03-01T12:54:22;9.80;84.80
26947;DHT22;14501;52.282;10.560;2023-03-01T12:56:51;9.70;86.00
26947;DHT22;14501;52.282;10.560;2023-03-01T13:09:39;9.90;90.00
26947;DHT22;14501;52.282;10.560;2023-03-01T13:14:53;9.60;89.20
26947;DHT22;14501;52.282;10.560;2023-03-01T13:17:33;10.00;90.60
26947;DHT22;14501;52.282;10.560;2023-03-01T13:19:59;9.70;90.00
26947;DHT22;14501;52.282;10.560;2023-03-01T13:22:25;9.80;90.40
26947;DHT22;14501;52.282;10.560;2023-03-01T13:25:00;9.50;89.30
26947;DHT22;14501;52.282;10.560;2023-03-01T13:27:26;10.10;90.00
26947;DHT22;14501;52.282;10.560;2023-03-01T13:29:58;10.30;90.00
26947;DHT22;14501;52.282;10.560;2023-03-01T13:32:32;9.60;90.10
26947;DHT22;14501;52.282;10.560;2023-03-01T13:34:59;9.50;88.00
26947;DHT22;14501;52.282;10.560;2023-03-01T13:37:35;9.70;89.60
26947;DHT22;14501;52.282;10.560;2023-03-01T13:40:02;9.20;89.30
26947;DHT22;14501;52.282;10.560;2023-03-01T13:42:48;9.10;90.10
26947;DHT22;14501;52.282;10.560;2023-03-01T13:47:40;8.80;90.30
26947;DHT22;14501;52.282;10.560;2023-03-01T13:50:14;8.70;90.50
26947;DHT22;14501;52.282;10.560;2023-03-01T13:52:45;8.60;90.40
26947;DHT22;14501;52.282;10.560;2023-03-01T13:55:15;8.50;90.90
26947;DHT22;14501;52.282;10.560;2023-03-01T13:57:43;8.30;90.00
26947;DHT22;14501;52.282;10.560;2023-03-01T14:00:32;8.20;90.70
26947;DHT22;14501;52.282;10.560;2023-03-01T14:05:33;8.20;91.50
26947;DHT22;14501;52.282;10.560;2023-03-01T14:07:59;8.00;91.00
26947;DHT22;14501;52.282;10.560;2023-03-01T14:10:31;8.00;90.90
26947;DHT22;14501;52.282;10.560;2023-03-01T14:15:31;8.00;91.40
26947;DHT22;14501;52.282;10.560;2023-03-01T14:20:33;7.70;90.70
26947;DHT22;14501;52.282;10.560;2023-03-01T14:23:12;7.60;91.30
26947;DHT22;14501;52.282;10.560;2023-03-01T14:25:38;7.60;90.90
26947;DHT22;14501;52.282;10.560;2023-03-01T14:28:14;7.50;90.40
26947;DHT22;14501;52.282;10.560;2023-03-01T14:30:42;7.40;91.70
26947;DHT22;14501;52.282;10.560;2023-03-01T14:33:21;7.30;90.70
26947;DHT22;14501;52.282;10.560;2023-03-01T14:38:22;7.20;90.90
26947;DHT22;14501;52.282;10.560;2023-03-01T14:40:49;7.20;90.80
26947;DHT22;14501;52.282;10.560;2023-03-01T14:43:17;7.20;90.40
26947;DHT22;14501;52.282;10.560;2023-03-01T14:45:48;7.10;89.10
26947;DHT22;14501;52.282;10.560;2023-03-01T14:48:14;7.00;89.70
26947;DHT22;14501;52.282;10.560;2023-03-01T14:50:40;7.00;90.00
26947;DHT22;14501;52.282;10.560;2023-03-01T14:53:06;7.00;90.30
26947;DHT22;14501;52.282;10.560;2023-03-01T14:55:38;7.00;90.20
26947;DHT22;14501;52.282;10.560;2023-03-01T14:58:10;6.90;90.00
26947;DHT22;14501;52.282;10.560;2023-03-01T15:00:37;7.00;90.30
26947;DHT22;14501;52.282;10.560;2023-03-01T15:03:05;7.00;89.20
26947;DHT22;14501;52.282;10.560;2023-03-01T15:05:35;7.00;89.30
26947;DHT22;14501;52.282;10.560;2023-03-01T15:08:01;6.90;89.00
26947;DHT22;14501;52.282;10.560;2023-03-01T15:10:29;6.90;90.40
26947;DHT22;14501;52.282;10.560;2023-03-01T15:12:55;6.90;90.70
26947;DHT22;14501;52.282;10.560;2023-03-01T15:17:59;6.80;90.90
26947;DHT22;14501;52.282;10.560;2023-03-01T15:20:25;6.40;90.70
26947;DHT22;14501;52.282;10.560;2023-03-01T15:22:53;6.80;91.20
26947;DHT22;14501;52.282;10.560;2023-03-01T15:25:19;6.80;91.40
26947;DHT22;14501;52.282;10.560;2023-03-01T15:27:48;6.90;91.40
26947;DHT22;14501;52.282;10.560;2023-03-01T15:30:19;6.80;91.60
26947;DHT22;14501;52.282;10.560;2023-03-01T15:32:46;6.80;91.60
26947;DHT22;14501;52.282;10.560;2023-03-01T15:37:56;6.80;91.40
26947;DHT22;14501;52.282;10.560;2023-03-01T15:40:26;6.80;91.80
26947;DHT22;14501;52.282;10.560;2023-03-01T15:42:58;6.80;91.90
26947;DHT22;14501;52.282;10.560;2023-03-01T15:45:25;6.70;92.00
26947;DHT22;14501;52.282;10.560;2023-03-01T15:47:53;6.70;92.10
26947;DHT22;14501;52.282;10.560;2023-03-01T15:50:22;6.60;92.90
26947;DHT22;14501;52.282;10.560;2023-03-01T15:52:48;6.60;93.00
26947;DHT22;14501;52.282;10.560;2023-03-01T15:55:28;6.60;92.90
26947;DHT22;14501;52.282;10.560;2023-03-01T15:58:13;6.50;92.10
26947;DHT22;14501;52.282;10.560;2023-03-01T16:00:39;6.50;92.50
26947;DHT22;14501;52.282;10.560;2023-03-01T16:03:05;6.40;92.70
26947;DHT22;14501;52.282;10.560;2023-03-01T16:05:32;6.40;92.20
26947;DHT22;14501;52.282;10.560;2023-03-01T16:07:58;6.30;91.90
26947;DHT22;14501;52.282;10.560;2023-03-01T16:10:24;6.30;92.40
26947;DHT22;14501;52.282;10.560;2023-03-01T16:12:50;6.20;92.40
26947;DHT22;14501;52.282;10.560;2023-03-01T16:15:24;6.10;92.40
26947;DHT22;14501;52.282;10.560;2023-03-01T16:17:50;6.00;92.00
26947;DHT22;14501;52.282;10.560;2023-03-01T16:20:17;6.00;92.20
26947;DHT22;14501;52.282;10.560;2023-03-01T16:22:43;5.90;92.50
26947;DHT22;14501;52.282;10.560;2023-03-01T16:25:09;5.80;92.70
26947;DHT22;14501;52.282;10.560;2023-03-01T16:27:35;5.80;92.50
26947;DHT22;14501;52.282;10.560;2023-03-01T16:30:01;5.70;93.00
26947;DHT22;14501;52.282;10.560;2023-03-01T16:32:26;5.60;93.50
26947;DHT22;14501;52.282;10.560;2023-03-01T16:34:52;5.50;93.50
26947;DHT22;14501;52.282;10.560;2023-03-01T16:37:17;5.40;93.30
26947;DHT22;14501;52.282;10.560;2023-03-01T16:39:44;5.30;93.70
26947;DHT22;14501;52.282;10.560;2023-03-01T16:42:09;5.30;93.80
26947;DHT22;14501;52.282;10.560;2023-03-01T16:44:35;5.20;94.00
26947;DHT22;14501;52.282;10.560;2023-03-01T16:47:00;5.10;94.20
26947;DHT22;14501;52.282;10.560;2023-03-01T16:49:26;5.00;94.60
26947;DHT22;14501;52.282;10.560;2023-03-01T16:51:53;4.90;94.70
26947;DHT22;14501;52.282;10.560;2023-03-01T16:54:18;4.80;94.90
26947;DHT22;14501;52.282;10.560;2023-03-01T16:56:44;4.70;94.90
26947;DHT22;14501;52.282;10.560;2023-03-01T16:59:09;4.70;95.20
26947;DHT22;14501;52.282;10.560;2023-03-01T17:01:35;4.50;95.40
26947;DHT22;14501;52.282;10.560;2023-03-01T17:04:06;4.40;95.70
26947;DHT22;14501;52.282;10.560;2023-03-01T17:06:31;4.20;95.80
26947;DHT22;14501;52.282;10.560;2023-03-01T17:08:58;4.20;96.20
26947;DHT22;14501;52.282;10.560;2023-03-01T17:11:24;4.10;96.50
26947;DHT22;14501;52.282;10.560;2023-03-01T17:13:50;4.00;97.70
26947;DHT22;14501;52.282;10.560;2023-03-01T17:16:16;3.70;98.40
26947;DHT22;14501;52.282;10.560;2023-03-01T17:18:42;3.60;98.50